Time;durP1;ratioP1;P1;durP2;ratioP2;P2;SDS_P1;SDS_P2;PMS_P1;PMS_P2;Temp;Humidity;BMP_temperature;BMP_pressure;BME280_temperature;BME280_humidity;BME280_pressure;Samples;Min_cycle;Max_cycle;Signal;HPM_P1;HPM_P2
2021/05/08 00:00:20;;;;;;;3.97;2.90;;;;;;;;;;5013952;28;20260;-82
2021/05/08 00:02:46;;;;;;;3.63;2.70;;;;;;;;;;5013390;28;20165;-82
2021/05/08 00:05:12;;;;;;;2.90;2.60;;;;;;;;;;5013330;28;20165;-82
2021/05/08 00:07:38;;;;;;;3.27;2.97;;;;;;;;;;5013883;28;20169;-83
2021/05/08 00:10:07;;;;;;;3.20;2.87;;;;;;;;;;5013513;28;20299;-82
2021/05/08 00:12:33;;;;;;;3.20;2.90;;;;;;;;;;5013469;28;20176;-82
2021/05/08 00:14:58;;;;;;;3.50;3.20;;;;;;;;;;5013663;28;20196;-82
2021/05/08 00:17:23;;;;;;;3.50;3.20;;;;;;;;;;5013129;28;20193;-82
2021/05/08 00:19:49;;;;;;;4.00;3.60;;;;;;;;;;5013394;28;20177;-82
2021/05/08 00:22:14;;;;;;;4.43;4.03;;;;;;;;;;5013717;28;20169;-82
2021/05/08 00:24:39;;;;;;;4.00;3.70;;;;;;;;;;5013081;28;20169;-82
2021/05/08 00:27:05;;;;;;;4.13;3.73;;;;;;;;;;5013602;28;20181;-82
2021/05/08 00:29:30;;;;;;;3.70;3.40;;;;;;;;;;5013289;28;20223;-81
2021/05/08 00:31:55;;;;;;;4.13;3.80;;;;;;;;;;5013363;28;20177;-81
2021/05/08 00:34:21;;;;;;;3.90;3.50;;;;;;;;;;5012979;28;20571;-82
2021/05/08 00:36:46;;;;;;;4.30;3.90;;;;;;;;;;5013450;28;20581;-82
2021/05/08 00:39:11;;;;;;;4.20;3.87;;;;;;;;;;5013012;28;20627;-82
2021/05/08 00:41:37;;;;;;;4.60;3.97;;;;;;;;;;5013449;28;20165;-81
2021/05/08 00:44:02;;;;;;;4.53;4.13;;;;;;;;;;5013221;28;20172;-82
2021/05/08 00:46:27;;;;;;;5.17;4.63;;;;;;;;;;5012913;28;20611;-82
2021/05/08 00:48:55;;;;;;;5.07;3.93;;;;;;;;;;5013292;28;20173;-83
2021/05/08 00:51:20;;;;;;;4.80;4.40;;;;;;;;;;5012888;28;20173;-83
2021/05/08 00:53:46;;;;;;;5.03;4.50;;;;;;;;;;5013391;28;20161;-83
2021/05/08 00:56:11;;;;;;;5.23;4.80;;;;;;;;;;5012898;28;20196;-83
2021/05/08 00:58:37;;;;;;;5.73;4.90;;;;;;;;;;5013184;28;20255;-83
2021/05/08 01:01:02;;;;;;;6.67;5.27;;;;;;;;;;5013062;28;20638;-82
2021/05/08 01:03:28;;;;;;;7.53;6.73;;;;;;;;;;5013103;28;20608;-82
2021/05/08 01:05:53;;;;;;;7.30;6.40;;;;;;;;;;4995477;28;20616;-82
2021/05/08 01:08:18;;;;;;;8.23;6.23;;;;;;;;;;5013680;28;20173;-82
2021/05/08 01:10:44;;;;;;;7.00;6.30;;;;;;;;;;5016766;28;20522;-82
2021/05/08 01:13:10;;;;;;;7.43;6.63;;;;;;;;;;5016785;28;20169;-82
2021/05/08 01:15:35;;;;;;;7.90;6.67;;;;;;;;;;5016163;28;20185;-82
2021/05/08 01:18:00;;;;;;;8.00;7.20;;;;;;;;;;5016265;28;20193;-82
2021/05/08 01:20:26;;;;;;;8.60;7.27;;;;;;;;;;5016543;28;20555;-82
2021/05/08 01:22:51;;;;;;;9.47;8.10;;;;;;;;;;5016471;28;20161;-82
2021/05/08 01:25:20;;;;;;;9.77;8.50;;;;;;;;;;5016377;28;20634;-82
2021/05/08 01:27:46;;;;;;;10.27;9.10;;;;;;;;;;5016509;28;20205;-82
2021/05/08 01:30:12;;;;;;;10.13;9.10;;;;;;;;;;5016614;28;20328;-82
2021/05/08 01:32:38;;;;;;;10.20;9.20;;;;;;;;;;5016189;28;20178;-82
2021/05/08 01:35:03;;;;;;;11.60;9.70;;;;;;;;;;5015982;28;20235;-82
2021/05/08 01:37:29;;;;;;;11.13;9.90;;;;;;;;;;5016173;28;20204;-82
2021/05/08 01:39:54;;;;;;;11.17;10.00;;;;;;;;;;5016196;28;20180;-82
2021/05/08 01:42:19;;;;;;;12.50;11.30;;;;;;;;;;5016084;28;20219;-82
2021/05/08 01:44:45;;;;;;;12.63;10.67;;;;;;;;;;5015940;28;20223;-83
2021/05/08 01:47:10;;;;;;;11.63;10.20;;;;;;;;;;5016393;28;20222;-82
2021/05/08 01:49:35;;;;;;;11.10;9.93;;;;;;;;;;5015734;28;20172;-82
2021/05/08 01:52:01;;;;;;;11.67;10.50;;;;;;;;;;5015655;28;20170;-82
2021/05/08 01:54:26;;;;;;;13.03;10.13;;;;;;;;;;5016222;28;20184;-82
2021/05/08 01:56:51;;;;;;;12.80;9.97;;;;;;;;;;5015545;28;20530;-82
2021/05/08 01:59:16;;;;;;;12.33;11.03;;;;;;;;;;5015887;28;20173;-82
2021/05/08 02:01:42;;;;;;;12.70;10.53;;;;;;;;;;5016044;28;20177;-81
2021/05/08 02:04:09;;;;;;;10.90;9.80;;;;;;;;;;5015819;28;20173;-82
2021/05/08 02:06:34;;;;;;;11.60;10.30;;;;;;;;;;5015720;28;20175;-82
2021/05/08 02:09:00;;;;;;;11.43;10.23;;;;;;;;;;5015896;28;20224;-82
2021/05/08 02:11:25;;;;;;;11.83;10.53;;;;;;;;;;5015624;28;20260;-82
2021/05/08 02:13:50;;;;;;;11.87;10.00;;;;;;;;;;5015570;28;20177;-82
2021/05/08 02:16:16;;;;;;;11.73;10.43;;;;;;;;;;5015921;28;20230;-81
2021/05/08 02:18:41;;;;;;;13.13;10.57;;;;;;;;;;5015912;28;20279;-82
2021/05/08 02:21:07;;;;;;;10.77;9.67;;;;;;;;;;5014837;28;20188;-82
2021/05/08 02:23:33;;;;;;;10.60;9.50;;;;;;;;;;5015101;28;20180;-82
2021/05/08 02:25:58;;;;;;;10.97;9.87;;;;;;;;;;5015391;28;20229;-81
2021/05/08 02:28:23;;;;;;;12.43;10.27;;;;;;;;;;5015016;28;20185;-82
2021/05/08 02:30:49;;;;;;;12.30;10.90;;;;;;;;;;5014999;28;20197;-82
2021/05/08 02:33:14;;;;;;;10.80;9.70;;;;;;;;;;5015059;28;20238;-82
2021/05/08 02:35:39;;;;;;;11.97;9.67;;;;;;;;;;5014867;28;20526;-82
2021/05/08 02:38:05;;;;;;;10.93;9.83;;;;;;;;;;5014859;28;20197;-81
2021/05/08 02:40:31;;;;;;;12.83;10.17;;;;;;;;;;5015367;28;20181;-82
2021/05/08 02:42:57;;;;;;;10.47;9.30;;;;;;;;;;5015294;28;20322;-81
2021/05/08 02:45:22;;;;;;;10.73;9.33;;;;;;;;;;5014630;28;20265;-82
2021/05/08 02:47:49;;;;;;;11.00;9.40;;;;;;;;;;5014794;28;20582;-81
2021/05/08 02:50:15;;;;;;;11.37;9.10;;;;;;;;;;5015115;28;20219;-82
2021/05/08 02:52:41;;;;;;;10.40;9.23;;;;;;;;;;5014810;28;20169;-82
2021/05/08 02:55:07;;;;;;;10.30;9.30;;;;;;;;;;5014820;28;20179;-82
2021/05/08 02:57:32;;;;;;;10.17;9.17;;;;;;;;;;5014752;28;20647;-82
2021/05/08 02:59:58;;;;;;;9.93;8.93;;;;;;;;;;5014695;28;20177;-82
2021/05/08 03:02:23;;;;;;;10.87;9.57;;;;;;;;;;5014961;28;20218;-82
2021/05/08 03:04:49;;;;;;;10.60;9.50;;;;;;;;;;5014755;28;20170;-82
2021/05/08 03:07:14;;;;;;;11.13;9.97;;;;;;;;;;5014477;28;20621;-81
2021/05/08 03:09:39;;;;;;;10.17;8.43;;;;;;;;;;5014272;28;20509;-82
2021/05/08 03:12:05;;;;;;;9.60;8.60;;;;;;;;;;5014212;28;20173;-82
2021/05/08 03:14:31;;;;;;;9.97;8.37;;;;;;;;;;5014497;28;20544;-82
2021/05/08 03:16:57;;;;;;;8.90;8.00;;;;;;;;;;5014165;28;20262;-81
2021/05/08 03:19:22;;;;;;;8.83;7.93;;;;;;;;;;5014138;28;20615;-82
2021/05/08 03:21:48;;;;;;;8.73;7.83;;;;;;;;;;5014427;28;20204;-81
2021/05/08 03:24:13;;;;;;;8.40;7.60;;;;;;;;;;5014010;28;20169;-81
2021/05/08 03:26:39;;;;;;;7.93;7.00;;;;;;;;;;5013901;28;20229;-82
2021/05/08 03:29:04;;;;;;;7.97;7.17;;;;;;;;;;5013901;28;20619;-82
2021/05/08 03:31:30;;;;;;;8.53;7.73;;;;;;;;;;5014173;28;20176;-82
2021/05/08 03:33:55;;;;;;;8.37;7.53;;;;;;;;;;5014156;28;20188;-82
2021/05/08 03:36:21;;;;;;;8.40;7.47;;;;;;;;;;5014329;28;20169;-81
2021/05/08 03:38:46;;;;;;;8.00;7.17;;;;;;;;;;5014009;28;20280;-81
2021/05/08 03:41:11;;;;;;;8.63;7.23;;;;;;;;;;5013722;28;20177;-81
2021/05/08 03:43:37;;;;;;;7.70;7.00;;;;;;;;;;5013637;28;20619;-81
2021/05/08 03:46:02;;;;;;;7.73;6.93;;;;;;;;;;5013622;28;20166;-81
2021/05/08 03:48:27;;;;;;;8.37;7.57;;;;;;;;;;5013872;28;20187;-82
2021/05/08 03:50:53;;;;;;;10.83;8.30;;;;;;;;;;5013758;28;20177;-81
2021/05/08 03:53:19;;;;;;;8.43;7.57;;;;;;;;;;5013792;28;20531;-81
2021/05/08 03:55:45;;;;;;;8.00;7.20;;;;;;;;;;5013527;28;20533;-81
2021/05/08 03:58:10;;;;;;;9.57;8.13;;;;;;;;;;5013334;28;20200;-82
2021/05/08 04:00:35;;;;;;;7.83;7.00;;;;;;;;;;5013937;28;20169;-81
2021/05/08 04:03:01;;;;;;;8.30;7.40;;;;;;;;;;5013905;28;20183;-81
2021/05/08 04:05:26;;;;;;;8.60;7.70;;;;;;;;;;5013611;28;20532;-82
2021/05/08 04:07:51;;;;;;;8.20;7.40;;;;;;;;;;4996362;28;20188;-81
2021/05/08 04:10:17;;;;;;;7.97;7.07;;;;;;;;;;5013533;28;20173;-81
2021/05/08 04:12:43;;;;;;;9.53;7.97;;;;;;;;;;5013210;28;20176;-81
2021/05/08 04:15:08;;;;;;;9.10;7.47;;;;;;;;;;5013077;28;20189;-81
2021/05/08 04:17:33;;;;;;;9.00;8.10;;;;;;;;;;5013349;28;20370;-81
2021/05/08 04:19:59;;;;;;;8.83;8.00;;;;;;;;;;5013476;28;20181;-81
2021/05/08 04:22:24;;;;;;;8.40;7.57;;;;;;;;;;5013307;28;20183;-81
2021/05/08 04:24:49;;;;;;;7.70;7.00;;;;;;;;;;5012998;28;20244;-81
2021/05/08 04:27:15;;;;;;;7.63;6.83;;;;;;;;;;5013759;28;20248;-81
2021/05/08 04:29:40;;;;;;;7.70;6.90;;;;;;;;;;5013487;28;20268;-82
2021/05/08 04:32:05;;;;;;;8.30;7.50;;;;;;;;;;5013121;28;20191;-82
2021/05/08 04:34:31;;;;;;;8.43;7.60;;;;;;;;;;5013132;28;20199;-81
2021/05/08 04:36:56;;;;;;;7.67;6.97;;;;;;;;;;5013443;28;20195;-81
2021/05/08 04:39:22;;;;;;;8.53;7.60;;;;;;;;;;5013245;28;20180;-81
2021/05/08 04:41:47;;;;;;;7.73;7.03;;;;;;;;;;5013246;28;20180;-81
2021/05/08 04:44:12;;;;;;;7.57;6.87;;;;;;;;;;5015215;28;20179;-81
2021/05/08 04:46:38;;;;;;;7.80;7.03;;;;;;;;;;5017011;28;20173;-82
2021/05/08 04:49:03;;;;;;;6.30;5.70;;;;;;;;;;5017450;28;20173;-81
2021/05/08 04:51:28;;;;;;;6.50;5.90;;;;;;;;;;5017290;28;20174;-86
2021/05/08 04:53:54;;;;;;;6.50;5.90;;;;;;;;;;5017111;28;20173;-82
2021/05/08 04:56:19;;;;;;;6.90;6.30;;;;;;;;;;5016760;28;20177;-82
2021/05/08 04:58:44;;;;;;;6.60;5.93;;;;;;;;;;5016611;28;20240;-82
2021/05/08 05:01:10;;;;;;;6.50;5.90;;;;;;;;;;5016617;28;20196;-82
2021/05/08 05:03:36;;;;;;;8.17;7.47;;;;;;;;;;5016633;28;20215;-82
2021/05/08 05:06:02;;;;;;;7.27;6.57;;;;;;;;;;5016988;28;20212;-83
2021/05/08 05:08:27;;;;;;;6.60;6.07;;;;;;;;;;5017054;28;20239;-82
2021/05/08 05:10:52;;;;;;;7.47;6.77;;;;;;;;;;4999152;28;20195;-82
2021/05/08 05:13:21;;;;;;;6.53;5.93;;;;;;;;;;5016628;28;20256;-82
2021/05/08 05:15:47;;;;;;;6.73;6.13;;;;;;;;;;5016375;28;20276;-83
2021/05/08 05:18:12;;;;;;;10.37;8.13;;;;;;;;;;5016611;28;20288;-82
2021/05/08 05:20:38;;;;;;;7.90;7.10;;;;;;;;;;5016701;28;20169;-82
2021/05/08 05:23:04;;;;;;;7.50;6.80;;;;;;;;;;5016547;28;20173;-82
2021/05/08 05:25:29;;;;;;;9.90;9.00;;;;;;;;;;5016250;28;20236;-82
2021/05/08 05:27:54;;;;;;;10.00;8.37;;;;;;;;;;5016056;28;20200;-82
2021/05/08 05:30:20;;;;;;;9.37;8.47;;;;;;;;;;5016184;28;20635;-82
2021/05/08 05:32:46;;;;;;;8.40;7.50;;;;;;;;;;5016071;28;20239;-82
2021/05/08 05:35:11;;;;;;;7.60;6.90;;;;;;;;;;5016305;28;20209;-82
2021/05/08 05:37:37;;;;;;;7.53;6.90;;;;;;;;;;5016466;28;20196;-82
2021/05/08 05:40:02;;;;;;;7.80;6.97;;;;;;;;;;5016510;28;20184;-81
2021/05/08 05:42:28;;;;;;;7.40;6.70;;;;;;;;;;5016179;28;20169;-82
2021/05/08 05:44:53;;;;;;;8.57;7.77;;;;;;;;;;5016144;28;20169;-82
2021/05/08 05:47:22;;;;;;;9.80;8.00;;;;;;;;;;5016063;28;20624;-82
2021/05/08 05:49:50;;;;;;;8.23;7.50;;;;;;;;;;5015979;28;20177;-82
2021/05/08 05:52:16;;;;;;;8.70;7.20;;;;;;;;;;5016080;28;20180;-83
2021/05/08 05:54:42;;;;;;;8.37;7.57;;;;;;;;;;5015926;28;20256;-82
2021/05/08 05:57:08;;;;;;;8.57;7.80;;;;;;;;;;5015980;28;20297;-83
2021/05/08 05:59:33;;;;;;;7.93;7.23;;;;;;;;;;5015886;28;20213;-82
2021/05/08 06:01:58;;;;;;;9.40;8.40;;;;;;;;;;5015810;28;20196;-82
2021/05/08 06:04:23;;;;;;;8.13;7.33;;;;;;;;;;5015826;28;20635;-82
2021/05/08 06:06:49;;;;;;;7.83;7.13;;;;;;;;;;5015412;28;20624;-82
2021/05/08 06:09:14;;;;;;;8.07;7.37;;;;;;;;;;5015330;28;20179;-82
2021/05/08 06:11:39;;;;;;;7.00;6.40;;;;;;;;;;5015769;28;20620;-83
2021/05/08 06:14:05;;;;;;;8.63;7.83;;;;;;;;;;5016048;28;20650;-83
2021/05/08 06:16:30;;;;;;;6.13;5.63;;;;;;;;;;5015159;28;20197;-83
2021/05/08 06:18:55;;;;;;;7.00;6.30;;;;;;;;;;5015178;28;20197;-83
2021/05/08 06:21:21;;;;;;;8.50;7.70;;;;;;;;;;5015345;28;20642;-83
2021/05/08 06:23:46;;;;;;;8.03;7.23;;;;;;;;;;5015364;28;20185;-82
2021/05/08 06:26:11;;;;;;;8.37;6.73;;;;;;;;;;5014918;28;20232;-82
2021/05/08 06:28:37;;;;;;;6.37;5.77;;;;;;;;;;5015096;28;20173;-87
2021/05/08 06:31:02;;;;;;;6.93;6.23;;;;;;;;;;5015092;28;20269;-82
2021/05/08 06:33:27;;;;;;;7.17;6.57;;;;;;;;;;5015155;28;20173;-83
2021/05/08 06:35:53;;;;;;;7.00;6.30;;;;;;;;;;5014948;28;20179;-83
2021/05/08 06:38:18;;;;;;;7.47;6.77;;;;;;;;;;5014694;28;20287;-83
2021/05/08 06:40:43;;;;;;;8.43;7.63;;;;;;;;;;5014874;28;20209;-83
2021/05/08 06:43:09;;;;;;;8.43;7.73;;;;;;;;;;5007502;28;20185;-84
2021/05/08 06:45:34;;;;;;;8.17;7.47;;;;;;;;;;4995176;28;20174;-83
2021/05/08 06:48:00;;;;;;;9.47;8.50;;;;;;;;;;4995093;28;20223;-83
2021/05/08 06:50:26;;;;;;;9.43;8.53;;;;;;;;;;4995339;28;20182;-83
2021/05/08 06:52:54;;;;;;;9.30;8.40;;;;;;;;;;4995017;28;20178;-83
2021/05/08 06:55:20;;;;;;;8.90;8.03;;;;;;;;;;4978189;28;20178;-83
2021/05/08 06:57:45;;;;;;;9.80;8.90;;;;;;;;;;4995007;28;20202;-84
2021/05/08 07:00:11;;;;;;;11.40;10.40;;;;;;;;;;4995231;28;20173;-84
2021/05/08 07:02:36;;;;;;;10.37;9.57;;;;;;;;;;5014687;28;20181;-85
2021/05/08 07:05:01;;;;;;;9.03;8.20;;;;;;;;;;5014707;28;20623;-84
2021/05/08 07:07:27;;;;;;;8.77;7.90;;;;;;;;;;5014252;28;20221;-84
2021/05/08 07:09:52;;;;;;;8.63;7.93;;;;;;;;;;5014360;28;20541;-85
2021/05/08 07:12:17;;;;;;;8.93;8.03;;;;;;;;;;5014161;28;20162;-84
2021/05/08 07:14:43;;;;;;;9.13;8.30;;;;;;;;;;5014671;28;20648;-85
2021/05/08 07:17:08;;;;;;;9.00;8.20;;;;;;;;;;5014383;28;20223;-84
2021/05/08 07:19:33;;;;;;;9.07;7.27;;;;;;;;;;5014529;28;20208;-84
2021/05/08 07:22:01;;;;;;;8.40;7.70;;;;;;;;;;5014511;28;20260;-84
2021/05/08 07:24:26;;;;;;;9.33;8.43;;;;;;;;;;5014020;28;20256;-84
2021/05/08 07:26:52;;;;;;;10.17;9.03;;;;;;;;;;5014521;28;20634;-84
2021/05/08 07:29:18;;;;;;;11.63;10.43;;;;;;;;;;5014355;28;20169;-85
2021/05/08 07:31:44;;;;;;;23.50;20.30;;;;;;;;;;5014259;28;20247;-85
2021/05/08 07:34:09;;;;;;;16.40;14.80;;;;;;;;;;5014521;28;20608;-85
2021/05/08 07:36:34;;;;;;;12.10;11.03;;;;;;;;;;5014086;28;20551;-84
2021/05/08 07:39:00;;;;;;;25.10;22.63;;;;;;;;;;5007267;28;20681;-85
2021/05/08 07:41:25;;;;;;;8.13;7.43;;;;;;;;;;5012052;28;20706;-85
2021/05/08 07:43:51;;;;;;;8.20;7.50;;;;;;;;;;5013714;28;20202;-84
2021/05/08 07:46:16;;;;;;;17.10;11.00;;;;;;;;;;5013602;28;20173;-84
2021/05/08 07:48:41;;;;;;;11.33;9.73;;;;;;;;;;5013792;28;20304;-84
2021/05/08 07:51:06;;;;;;;7.68;7.07;;;;;;;;;;4996135;28;20196;-84
2021/05/08 07:53:36;;;;;;;7.03;5.97;;;;;;;;;;5013371;28;20628;-84
2021/05/08 07:56:01;;;;;;;6.18;5.60;;;;;;;;;;5013892;28;20184;-84
2021/05/08 07:58:27;;;;;;;6.47;5.93;;;;;;;;;;5013378;28;20550;-85
2021/05/08 08:00:52;;;;;;;6.45;5.78;;;;;;;;;;5013645;28;20173;-84
2021/05/08 08:03:18;;;;;;;6.25;5.65;;;;;;;;;;5013078;28;20169;-84
2021/05/08 08:05:43;;;;;;;6.13;5.63;;;;;;;;;;5013603;28;20236;-84
2021/05/08 08:08:08;;;;;;;6.63;6.03;;;;;;;;;;5027580;28;20180;-85
2021/05/08 08:10:34;;;;;;;8.05;6.50;;;;;;;;;;5021182;28;20180;-84
2021/05/08 08:12:59;;;;;;;13.82;12.48;;;;;;;;;;5034151;28;20173;-84
2021/05/08 08:15:24;;;;;;;10.05;9.05;;;;;;;;;;5033545;28;20542;-84
2021/05/08 08:17:50;;;;;;;4.95;4.53;;;;;;;;;;5033494;28;20707;-84
2021/05/08 08:20:15;;;;;;;8.32;6.57;;;;;;;;;;5034004;28;20176;-84
2021/05/08 08:22:41;;;;;;;5.60;5.13;;;;;;;;;;5033574;28;20165;-85
2021/05/08 08:25:08;;;;;;;7.15;5.05;;;;;;;;;;4999392;28;20280;-85
2021/05/08 08:27:33;;;;;;;4.80;4.40;;;;;;;;;;4994745;28;20570;-85
2021/05/08 08:29:59;;;;;;;6.82;4.70;;;;;;;;;;4977426;28;20300;-84
2021/05/08 08:32:24;;;;;;;4.65;4.32;;;;;;;;;;4994751;28;20201;-84
2021/05/08 08:34:49;;;;;;;6.95;6.28;;;;;;;;;;4994408;28;20256;-84
2021/05/08 08:37:15;;;;;;;23.20;20.70;;;;;;;;;;4994155;28;20197;-84
2021/05/08 08:39:40;;;;;;;7.63;6.20;;;;;;;;;;4994168;28;20205;-84
2021/05/08 08:42:07;;;;;;;5.77;5.20;;;;;;;;;;4976879;28;20169;-84
2021/05/08 08:44:35;;;;;;;6.47;5.83;;;;;;;;;;4976905;28;20552;-84
2021/05/08 08:47:01;;;;;;;6.13;5.53;;;;;;;;;;4993758;28;20194;-84
2021/05/08 08:49:26;;;;;;;6.27;5.67;;;;;;;;;;4993653;28;20682;-84
2021/05/08 08:51:51;;;;;;;4.60;4.20;;;;;;;;;;4993248;28;20166;-84
2021/05/08 08:54:17;;;;;;;6.57;5.50;;;;;;;;;;4994017;28;20174;-84
2021/05/08 08:56:45;;;;;;;5.53;4.57;;;;;;;;;;4993960;28;20202;-84
2021/05/08 09:01:42;;;;;;;17.17;14.50;;;;;;;;;;4993455;28;20269;-84
2021/05/08 09:04:08;;;;;;;3.80;3.50;;;;;;;;;;4993750;28;20174;-84
2021/05/08 09:06:34;;;;;;;5.23;3.83;;;;;;;;;;4993137;28;20166;-84
2021/05/08 09:08:59;;;;;;;4.33;3.90;;;;;;;;;;5007181;28;20280;-84
2021/05/08 09:11:25;;;;;;;23.30;19.50;;;;;;;;;;5012702;28;20188;-84
2021/05/08 09:14:12;;;;;;;6.80;5.40;;;;;;;;;;5013386;28;20260;-85
2021/05/08 09:16:37;;;;;;;4.93;3.80;;;;;;;;;;4999035;28;20583;-84
2021/05/08 09:19:18;;;;;;;6.57;5.83;;;;;;;;;;5012426;28;20197;-84
2021/05/08 09:21:43;;;;;;;7.57;4.67;;;;;;;;;;4999423;28;20181;-83
2021/05/08 09:24:08;;;;;;;5.07;4.43;;;;;;;;;;5013316;28;20188;-84
2021/05/08 09:26:38;;;;;;;17.23;15.63;;;;;;;;;;4994957;28;20233;-83
2021/05/08 09:29:15;;;;;;;9.10;8.20;;;;;;;;;;5013829;28;20235;-84
2021/05/08 09:31:59;;;;;;;3.97;3.30;;;;;;;;;;5017419;28;20536;-84
2021/05/08 09:34:25;;;;;;;3.50;3.20;;;;;;;;;;5017134;28;20195;-84
2021/05/08 09:36:57;;;;;;;4.50;3.70;;;;;;;;;;5017214;28;20256;-83
2021/05/08 09:39:28;;;;;;;4.20;3.80;;;;;;;;;;5016799;28;20192;-83
2021/05/08 09:41:53;;;;;;;4.70;4.30;;;;;;;;;;5016905;28;20169;-83
2021/05/08 09:44:19;;;;;;;5.03;4.30;;;;;;;;;;5017036;28;20200;-83
2021/05/08 09:46:44;;;;;;;3.50;3.20;;;;;;;;;;5016723;28;20177;-83
2021/05/08 09:49:16;;;;;;;3.87;3.53;;;;;;;;;;5016435;28;20507;-83
2021/05/08 09:51:41;;;;;;;3.50;3.20;;;;;;;;;;5016773;28;20220;-83
2021/05/08 09:54:10;;;;;;;10.47;6.73;;;;;;;;;;5017113;28;20169;-83
2021/05/08 09:56:42;;;;;;;4.37;3.97;;;;;;;;;;5017025;28;20184;-84
2021/05/08 09:59:22;;;;;;;3.40;3.10;;;;;;;;;;5016749;28;20204;-83
2021/05/08 10:01:47;;;;;;;3.50;3.20;;;;;;;;;;5016604;28;20195;-84
2021/05/08 10:04:32;;;;;;;5.17;3.00;;;;;;;;;;5016274;28;20165;-84
2021/05/08 10:07:09;;;;;;;3.67;3.33;;;;;;;;;;5016483;28;20176;-84
2021/05/08 10:09:35;;;;;;;3.80;3.30;;;;;;;;;;5016675;28;20234;-84
2021/05/08 10:12:04;;;;;;;3.40;2.80;;;;;;;;;;5016653;28;20173;-83
2021/05/08 10:14:30;;;;;;;16.70;14.80;;;;;;;;;;5016440;28;20183;-83
2021/05/08 10:16:57;;;;;;;7.30;6.70;;;;;;;;;;5016333;28;20193;-83
2021/05/08 10:19:23;;;;;;;7.17;4.40;;;;;;;;;;5016589;28;20559;-83
2021/05/08 10:21:48;;;;;;;10.27;9.27;;;;;;;;;;5015903;28;20173;-83
2021/05/08 10:24:14;;;;;;;5.40;4.37;;;;;;;;;;5016194;28;20172;-84
2021/05/08 10:26:40;;;;;;;9.33;8.43;;;;;;;;;;5016100;28;20221;-84
2021/05/08 10:29:06;;;;;;;7.70;6.47;;;;;;;;;;5016275;28;20176;-84
2021/05/08 10:31:32;;;;;;;3.93;3.10;;;;;;;;;;5016032;28;20255;-84
2021/05/08 10:33:58;;;;;;;13.07;11.63;;;;;;;;;;5016289;28;20631;-84
2021/05/08 10:36:42;;;;;;;2.90;2.70;;;;;;;;;;5015963;28;20173;-85
2021/05/08 10:39:07;;;;;;;4.83;3.10;;;;;;;;;;4998282;28;20335;-84
2021/05/08 10:41:52;;;;;;;4.40;4.00;;;;;;;;;;5015010;28;20255;-84
2021/05/08 10:44:56;;;;;;;3.80;3.50;;;;;;;;;;5016025;28;20169;-84
2021/05/08 10:47:21;;;;;;;5.93;4.30;;;;;;;;;;4935440;29;20188;-85
2021/05/08 10:50:05;;;;;;;6.20;5.17;;;;;;;;;;4935894;29;20231;-85
2021/05/08 10:52:50;;;;;;;7.73;6.37;;;;;;;;;;4981364;28;20642;-84
2021/05/08 10:55:22;;;;;;;6.83;4.90;;;;;;;;;;5014662;28;20173;-84
2021/05/08 10:58:07;;;;;;;4.07;3.43;;;;;;;;;;5014802;28;20294;-84
2021/05/08 11:00:43;;;;;;;3.90;3.27;;;;;;;;;;5014327;28;20185;-84
2021/05/08 11:03:08;;;;;;;4.73;4.10;;;;;;;;;;5014768;28;20169;-84
2021/05/08 11:05:39;;;;;;;5.20;4.47;;;;;;;;;;5014557;28;20180;-84
2021/05/08 11:08:24;;;;;;;5.10;4.63;;;;;;;;;;5014497;28;20189;-84
2021/05/08 11:10:56;;;;;;;5.60;3.47;;;;;;;;;;5007166;28;20185;-84
2021/05/08 11:13:22;;;;;;;3.87;3.17;;;;;;;;;;5014495;28;20638;-84
2021/05/08 11:15:52;;;;;;;4.53;4.10;;;;;;;;;;5014467;28;20189;-84
2021/05/08 11:18:33;;;;;;;4.07;3.67;;;;;;;;;;5014520;28;20648;-84
2021/05/08 11:21:03;;;;;;;4.23;3.40;;;;;;;;;;5014689;28;20335;-84
2021/05/08 11:23:41;;;;;;;3.67;3.30;;;;;;;;;;5014230;28;20227;-84
2021/05/08 11:26:22;;;;;;;3.83;3.47;;;;;;;;;;5014135;28;20235;-84
2021/05/08 11:29:03;;;;;;;4.23;3.83;;;;;;;;;;5014278;28;20181;-84
2021/05/08 11:31:32;;;;;;;4.27;3.87;;;;;;;;;;5014410;28;20173;-84
2021/05/08 11:34:11;;;;;;;4.27;3.70;;;;;;;;;;5013091;28;20195;-84
2021/05/08 11:36:57;;;;;;;10.03;8.00;;;;;;;;;;5005860;28;20264;-83
2021/05/08 11:39:24;;;;;;;4.07;3.43;;;;;;;;;;5009703;28;20208;-84
2021/05/08 11:41:50;;;;;;;3.70;3.40;;;;;;;;;;5015560;28;20177;-85
2021/05/08 11:44:20;;;;;;;6.27;5.33;;;;;;;;;;5019257;28;20238;-85
2021/05/08 11:46:52;;;;;;;3.53;3.23;;;;;;;;;;5009332;28;20176;-85
2021/05/08 11:49:24;;;;;;;6.03;3.90;;;;;;;;;;5002078;28;20181;-85
2021/05/08 11:51:49;;;;;;;3.97;3.37;;;;;;;;;;5003205;28;20174;-85
2021/05/08 11:54:15;;;;;;;3.23;2.97;;;;;;;;;;4977304;28;20181;-85
2021/05/08 11:56:40;;;;;;;4.83;3.50;;;;;;;;;;4994777;28;20162;-85
2021/05/08 11:59:06;;;;;;;3.70;3.40;;;;;;;;;;4977479;28;20198;-85
2021/05/08 12:01:32;;;;;;;9.80;6.27;;;;;;;;;;5012531;28;20181;-85
2021/05/08 12:03:58;;;;;;;3.57;3.23;;;;;;;;;;5018336;28;20168;-84
2021/05/08 12:06:24;;;;;;;4.70;3.13;;;;;;;;;;5019657;28;20192;-85
2021/05/08 12:08:50;;;;;;;3.67;3.37;;;;;;;;;;5033434;28;20176;-85
2021/05/08 12:11:17;;;;;;;4.27;3.50;;;;;;;;;;4999484;28;20177;-84
2021/05/08 12:13:44;;;;;;;4.00;3.60;;;;;;;;;;4994680;28;20213;-84
2021/05/08 12:16:12;;;;;;;3.70;3.40;;;;;;;;;;4994645;28;20197;-85
2021/05/08 12:18:38;;;;;;;4.00;3.70;;;;;;;;;;4994617;28;20194;-85
2021/05/08 12:21:05;;;;;;;4.27;3.80;;;;;;;;;;5008168;28;20268;-84
2021/05/08 12:23:31;;;;;;;5.13;3.50;;;;;;;;;;4996260;28;20178;-85
2021/05/08 12:26:06;;;;;;;3.80;3.50;;;;;;;;;;5014306;28;20567;-84
2021/05/08 12:28:31;;;;;;;4.43;3.57;;;;;;;;;;5001385;28;20579;-84
2021/05/08 12:30:59;;;;;;;3.70;3.37;;;;;;;;;;4994619;28;20173;-84
2021/05/08 12:33:27;;;;;;;3.90;3.60;;;;;;;;;;4994145;28;20189;-85
2021/05/08 12:35:54;;;;;;;3.90;3.50;;;;;;;;;;4994571;28;20196;-84
2021/05/08 12:38:19;;;;;;;3.70;3.33;;;;;;;;;;4994276;28;20208;-84
2021/05/08 12:40:45;;;;;;;3.80;3.37;;;;;;;;;;4994231;28;20178;-84
2021/05/08 12:43:10;;;;;;;6.37;3.77;;;;;;;;;;4976979;28;20174;-84
2021/05/08 12:45:58;;;;;;;4.77;3.87;;;;;;;;;;4994392;28;20185;-84
2021/05/08 12:48:30;;;;;;;3.67;3.20;;;;;;;;;;4994919;28;20225;-83
2021/05/08 12:50:56;;;;;;;3.73;3.43;;;;;;;;;;4992909;28;20581;-84
2021/05/08 12:53:21;;;;;;;5.20;3.60;;;;;;;;;;4996217;28;20256;-84
2021/05/08 12:56:04;;;;;;;3.83;3.30;;;;;;;;;;5013969;28;20162;-85
2021/05/08 12:58:36;;;;;;;4.07;3.53;;;;;;;;;;5013694;28;20540;-84
2021/05/08 13:01:01;;;;;;;3.50;3.20;;;;;;;;;;5008740;28;20641;-84
2021/05/08 13:06:22;;;;;;;3.70;3.27;;;;;;;;;;4998084;28;20188;-84
2021/05/08 13:08:49;;;;;;;3.73;3.40;;;;;;;;;;4998564;28;20197;-84
2021/05/08 13:11:32;;;;;;;3.33;3.03;;;;;;;;;;5008251;28;20624;-84
2021/05/08 13:14:17;;;;;;;3.80;3.40;;;;;;;;;;5017737;28;20177;-84
2021/05/08 13:21:53;;;;;;;4.10;3.57;;;;;;;;;;5016671;23;20248;-84
2021/05/08 13:24:25;;;;;;;3.40;3.10;;;;;;;;;;4997493;28;20185;-84
2021/05/08 13:26:50;;;;;;;4.07;3.20;;;;;;;;;;4996884;28;20174;-84
2021/05/08 13:29:15;;;;;;;3.77;3.13;;;;;;;;;;4997933;28;20178;-84
2021/05/08 13:31:41;;;;;;;3.40;3.20;;;;;;;;;;4980772;28;20520;-85
2021/05/08 13:34:06;;;;;;;4.60;3.70;;;;;;;;;;4997545;28;20636;-84
2021/05/08 13:36:33;;;;;;;4.27;3.20;;;;;;;;;;4998130;28;20170;-84
2021/05/08 13:42:08;;;;;;;4.40;2.97;;;;;;;;;;4997129;28;20620;-83
2021/05/08 13:44:33;;;;;;;3.53;3.17;;;;;;;;;;4993369;28;20589;-85
2021/05/08 13:46:59;;;;;;;4.50;3.40;;;;;;;;;;4993521;28;20216;-85
2021/05/08 13:49:24;;;;;;;5.33;3.30;;;;;;;;;;4978243;28;20637;-85
2021/05/08 13:51:49;;;;;;;6.73;5.60;;;;;;;;;;4996385;28;20666;-84
2021/05/08 13:54:15;;;;;;;8.43;5.90;;;;;;;;;;4994087;28;20175;-85
2021/05/08 13:56:40;;;;;;;4.47;4.00;;;;;;;;;;4996767;28;20173;-84
2021/05/08 13:59:06;;;;;;;4.73;3.60;;;;;;;;;;4996548;28;20626;-84
2021/05/08 14:01:31;;;;;;;5.57;3.97;;;;;;;;;;4995550;28;20170;-85
2021/05/08 14:03:56;;;;;;;3.57;2.93;;;;;;;;;;4996684;28;20185;-85
2021/05/08 14:06:21;;;;;;;3.77;3.40;;;;;;;;;;4996728;28;20166;-84
2021/05/08 14:08:47;;;;;;;4.57;3.93;;;;;;;;;;4996217;28;20181;-85
2021/05/08 14:11:13;;;;;;;4.20;3.80;;;;;;;;;;4996782;28;20269;-84
2021/05/08 14:13:38;;;;;;;4.87;4.00;;;;;;;;;;4996771;28;20169;-84
2021/05/08 14:16:04;;;;;;;4.30;3.90;;;;;;;;;;5003771;28;20707;-85
2021/05/08 14:18:29;;;;;;;4.53;3.63;;;;;;;;;;5016106;28;20193;-83
2021/05/08 14:20:54;;;;;;;4.57;3.90;;;;;;;;;;5014717;28;20229;-83
2021/05/08 14:23:20;;;;;;;3.17;2.97;;;;;;;;;;5016789;28;20260;-83
2021/05/08 14:25:45;;;;;;;4.20;3.80;;;;;;;;;;5016322;28;20567;-83
2021/05/08 14:28:11;;;;;;;5.03;3.33;;;;;;;;;;5016648;28;20242;-83
2021/05/08 14:30:36;;;;;;;3.47;3.17;;;;;;;;;;5016060;28;20174;-83
2021/05/08 14:33:01;;;;;;;6.77;3.90;;;;;;;;;;5016014;28;20176;-83
2021/05/08 14:35:28;;;;;;;5.50;3.60;;;;;;;;;;5016356;28;20174;-84
2021/05/08 14:37:53;;;;;;;3.93;3.60;;;;;;;;;;5015926;28;20201;-84
2021/05/08 14:40:19;;;;;;;4.00;3.60;;;;;;;;;;5016227;28;20169;-84
2021/05/08 14:42:44;;;;;;;4.70;4.10;;;;;;;;;;5015873;28;20240;-83
2021/05/08 14:45:10;;;;;;;5.20;4.80;;;;;;;;;;5015907;28;20173;-84
2021/05/08 14:47:36;;;;;;;4.93;3.90;;;;;;;;;;5015327;28;20185;-83
2021/05/08 14:50:01;;;;;;;4.83;3.43;;;;;;;;;;5015977;28;20181;-84